page 1095 of 1004913 registered users

eBook PostsUsers

  1. 0azhao registered @ 2009-12-27 10:37:25, last login @ 2009-12-27 10:37:25
  2. 0pramihari registered @ 2009-12-27 10:42:08, last login @ 2009-12-27 10:42:08
  3. 0tjerwinchen registered @ 2009-12-27 10:42:12, last login @ 2009-12-27 10:42:12
  4. 0Tim_q registered @ 2009-12-27 10:43:50, last login @ 2009-12-27 10:43:50
  5. 0hawthorn01 registered @ 2009-12-27 10:54:54, last login @ 2018-07-28 14:56:37
  6. 0alaiwata registered @ 2009-12-27 10:56:30, last login @ 2009-12-27 10:56:30
  7. 0largewoods registered @ 2009-12-27 11:13:11, last login @ 2009-12-27 11:13:11
  8. 0andriahspisces registered @ 2009-12-27 11:21:17, last login @ 2010-01-12 10:00:51
  9. 0peggywuntervq registered @ 2009-12-27 11:26:31, last login @ 2009-12-27 11:26:31
  10. 0kakyou registered @ 2009-12-27 11:30:02, last login @ 2009-12-27 11:30:02
  11. 0babeontorryvk registered @ 2009-12-27 11:32:02, last login @ 2009-12-27 11:32:02
  12. 0Ponkagirl registered @ 2009-12-27 11:57:14, last login @ 2009-12-27 11:57:14
  13. 0qingbin registered @ 2009-12-27 12:03:21, last login @ 2009-12-27 12:03:21
  14. 0RAALTEKAR registered @ 2009-12-27 12:09:18, last login @ 2010-03-15 09:09:30
  15. 0melina54 registered @ 2009-12-27 12:31:47, last login @ 2009-12-27 12:31:47
  16. 0zhbit05 registered @ 2009-12-27 12:35:29, last login @ 2009-12-27 12:35:29
  17. 0sasabendan registered @ 2009-12-27 12:51:36, last login @ 2009-12-28 00:11:15
  18. 0naiking registered @ 2009-12-27 13:20:02, last login @ 2009-12-27 13:20:02
  19. 0Christeus registered @ 2009-12-27 13:20:24, last login @ 2009-12-27 13:20:24
  20. 0lanyuzhihun registered @ 2009-12-27 13:23:25, last login @ 2009-12-27 13:23:25
  21. 0bonjure0327 registered @ 2009-12-27 13:27:45, last login @ 2009-12-27 13:58:07
  22. 01 registered @ 2009-12-27 13:32:20, last login @ 2009-12-27 13:32:20
  23. 0mechkaushik registered @ 2009-12-27 13:33:28, last login @ 2009-12-27 13:33:28
  24. 0gyf09 registered @ 2009-12-27 13:56:30, last login @ 2009-12-27 13:56:30
  25. 0neopaypeDew registered @ 2009-12-27 13:57:14, last login @ 2009-12-27 13:57:14
  26. 0commonsense registered @ 2009-12-27 13:58:09, last login @ 2009-12-27 13:58:09
  27. 0peggy_lv registered @ 2009-12-27 14:06:36, last login @ 2009-12-27 14:06:36
  28. 0xiaoshouzhi110 registered @ 2009-12-27 14:16:09, last login @ 2009-12-27 14:16:09
  29. 0AquartVar registered @ 2009-12-27 14:21:15, last login @ 2009-12-27 22:59:40
  30. 0ghodumal registered @ 2009-12-27 14:41:50, last login @ 2009-12-27 14:41:50
  31. 0qiqi041020 registered @ 2009-12-27 14:53:16, last login @ 2009-12-27 14:57:11
  32. 0whquanhai registered @ 2009-12-27 14:55:47, last login @ 2010-01-06 05:44:47
  33. 0tjemdx registered @ 2009-12-27 14:56:51, last login @ 2009-12-27 14:56:51
  34. 0r4royalc registered @ 2009-12-27 15:02:47, last login @ 2009-12-27 15:02:47
  35. 0vs711 registered @ 2009-12-27 15:10:35, last login @ 2009-12-27 15:10:35
  36. 0f62078 registered @ 2009-12-27 15:12:08, last login @ 2009-12-27 15:12:08
  37. 0aditya007 registered @ 2009-12-27 15:15:30, last login @ 2009-12-27 15:16:50
  38. 0kithara321 registered @ 2009-12-27 15:33:57, last login @ 2009-12-27 15:35:40
  39. 0lyproroHoitly registered @ 2009-12-27 15:41:35, last login @ 2009-12-27 20:27:57
  40. 0Alice9999 registered @ 2009-12-27 15:43:27, last login @ 2009-12-27 15:43:27
  41. 0chocolat registered @ 2009-12-27 15:51:01, last login @ 2009-12-27 15:55:16
  42. 0legracxiitflo registered @ 2009-12-27 15:59:16, last login @ 2009-12-27 15:59:16
  43. 0bedigais registered @ 2009-12-27 16:07:05, last login @ 2009-12-27 16:08:01
  44. 0yinyue_se registered @ 2009-12-27 16:11:25, last login @ 2009-12-27 16:11:25
  45. 0pinke1f registered @ 2009-12-27 16:13:15, last login @ 2009-12-27 16:13:15
  46. 0sernst0914 registered @ 2009-12-27 16:15:16, last login @ 2009-12-27 16:15:16
  47. 0keyu886 registered @ 2009-12-27 16:17:28, last login @ 2009-12-27 16:17:28
  48. 0aristonyoga registered @ 2009-12-27 16:21:49, last login @ 2009-12-27 16:23:21
  49. 0hifisher registered @ 2009-12-27 16:30:24, last login @ 2009-12-27 16:30:24
  50. 0JoneViags registered @ 2009-12-27 16:51:48, last login @ 2009-12-27 16:51:48
  51. 0mill registered @ 2009-12-27 16:56:04, last login @ 2009-12-27 16:56:04
  52. 0deltafox registered @ 2009-12-27 17:05:25, last login @ 2009-12-27 17:05:57
  53. 0Yukping registered @ 2009-12-27 17:32:12, last login @ 2009-12-27 17:32:12
  54. 0KulikovJen registered @ 2009-12-27 18:09:15, last login @ 2009-12-28 00:27:49
  55. 0sullyslimg registered @ 2009-12-27 18:11:42, last login @ 2009-12-27 18:11:42
  56. 0loganism registered @ 2009-12-27 18:33:44, last login @ 2009-12-27 18:33:57
  57. 0endubbind registered @ 2009-12-27 18:53:30, last login @ 2009-12-27 18:53:30
  58. 0yasirafique registered @ 2009-12-27 19:08:49, last login @ 2009-12-27 19:08:49
  59. 0elturko99 registered @ 2009-12-27 19:12:02, last login @ 2009-12-27 19:12:02
  60. 0kathflohato registered @ 2009-12-27 19:37:20, last login @ 2009-12-27 19:37:20
  61. 0uscgirl registered @ 2009-12-27 19:38:47, last login @ 2009-12-27 19:38:47
  62. 0revathiranimenon registered @ 2009-12-27 20:01:33, last login @ 2010-01-08 11:39:37
  63. 0mayanksinghcse registered @ 2009-12-27 20:17:36, last login @ 2009-12-27 20:18:19
  64. 0xaactetroacvo registered @ 2009-12-27 20:30:04, last login @ 2009-12-27 20:30:04
  65. 0DWingLow registered @ 2009-12-27 20:30:52, last login @ 2009-12-27 20:30:52
  66. 0cdir registered @ 2009-12-27 20:36:11, last login @ 2009-12-27 20:36:11
  67. 0supershopping registered @ 2009-12-27 20:49:03, last login @ 2009-12-27 20:57:32
  68. 0YouTubeadv registered @ 2009-12-27 20:50:29, last login @ 2009-12-27 20:50:29
  69. 0somebody333 registered @ 2009-12-27 21:10:09, last login @ 2009-12-27 21:10:09
  70. 0lomylileinflo registered @ 2009-12-27 21:15:34, last login @ 2009-12-27 21:15:34
  71. 0hryclegaxiox registered @ 2009-12-27 22:55:24, last login @ 2009-12-27 22:55:24
  72. 0crystalgarnottiqv registered @ 2009-12-27 23:15:29, last login @ 2009-12-27 23:15:29
  73. 0zhoulikang0721 registered @ 2009-12-27 23:31:46, last login @ 2009-12-27 23:31:46
  74. 0TangHong_ok registered @ 2009-12-28 00:03:20, last login @ 2009-12-28 00:03:20
  75. 0battery2046 registered @ 2009-12-28 00:04:48, last login @ 2009-12-28 00:04:48
  76. 0jack1234 registered @ 2009-12-28 00:18:11, last login @ 2009-12-28 00:18:11
  77. 0ct616 registered @ 2009-12-28 00:21:57, last login @ 2009-12-28 00:21:57
  78. 0zhoufcumt registered @ 2009-12-28 00:38:01, last login @ 2009-12-28 02:15:48
  79. 0refland registered @ 2009-12-28 00:43:15, last login @ 2009-12-28 00:43:15
  80. 0duako registered @ 2009-12-28 00:57:04, last login @ 2009-12-28 00:57:04
  81. 0westoncase registered @ 2009-12-28 01:12:34, last login @ 2009-12-28 01:12:34
  82. 0athxy registered @ 2009-12-28 01:15:23, last login @ 2009-12-28 01:20:40
  83. 0kybest registered @ 2009-12-28 01:22:01, last login @ 2009-12-28 01:22:01
  84. 0sammp3 registered @ 2009-12-28 01:23:57, last login @ 2009-12-28 01:25:24
  85. 0ttddlplp registered @ 2009-12-28 01:30:14, last login @ 2009-12-28 01:30:31
  86. 0longqianyoyo registered @ 2009-12-28 01:40:14, last login @ 2009-12-28 01:44:32
  87. 0xzcm2009 registered @ 2009-12-28 01:52:25, last login @ 2009-12-28 01:52:25
  88. 0Ouzifei registered @ 2009-12-28 01:52:47, last login @ 2009-12-28 01:52:47
  89. 0cortemporeick registered @ 2009-12-28 01:56:33, last login @ 2009-12-28 01:56:33
  90. 0qhao registered @ 2009-12-28 02:02:01, last login @ 2009-12-28 02:02:01
  91. 0donaseta registered @ 2009-12-28 02:02:59, last login @ 2009-12-28 02:02:59
  92. 0spartenz registered @ 2009-12-28 02:08:00, last login @ 2009-12-28 02:08:00
  93. 0bluefairyma registered @ 2009-12-28 02:15:19, last login @ 2009-12-28 02:16:14
  94. 0kh_fahad registered @ 2009-12-28 02:19:53, last login @ 2009-12-28 02:19:53
  95. 0yangjiesx registered @ 2009-12-28 02:27:43, last login @ 2009-12-28 02:30:31
  96. 0makai001 registered @ 2009-12-28 02:28:07, last login @ 2009-12-28 02:28:07
  97. 0farish registered @ 2009-12-28 02:31:42, last login @ 2009-12-29 08:00:52
  98. 0Aeroxecycle registered @ 2009-12-28 02:33:59, last login @ 2009-12-28 02:33:59
  99. 0fernandez5a registered @ 2009-12-28 02:42:48, last login @ 2009-12-28 02:42:48
  100. 0neomimatagik registered @ 2009-12-28 02:50:47, last login @ 2009-12-28 02:50:47
  101. 0plaboo registered @ 2009-12-28 02:52:36, last login @ 2009-12-28 02:52:36

More...

[1105] [1104] [1103] [1102] [1101] [1100] [1099] [1098] [1097] [1096] [1095] [1094] [1093] [1092] [1091] [1090] [1089] [1088] [1087] [1086] ...[1]
Back to Top